Normandie — FNNO — position and weather

sailwx.info

Track history (hours):
 
Tides and Currents Weather Stations Pressure Air Temp Water Temp Dewpoint Dewpoint Depression Visibility Wind Speed Wind Dir Waves Ship Positions

Normandie

Operator: Brittany Ferries

Last reported at 2019-Nov-20 08:30 UTC. Time now 2019-Nov-20 09:43 UTC.
Position N 50°47' W 001°06'.

Length 161 m; beam 27 m.

Type: Ship. MMSI: 227273000.

Date/timePositionNaut miles runAvg speedWind from/ knotsBaromVisibWave heightAir tempDewpointWater temp
2019-Nov-20 08:30N 50°47' W 001°06'2 1.6
2019-Nov-20 07:29N 50°49' W 001°06'0 0.1
2019-Nov-20 06:31N 50°49' W 001°06'8111.6
2019-Nov-19 23:30N 49°32' W 000°23'1111.2
2019-Nov-19 22:30N 49°22' W 000°16'5 3.0
2019-Nov-19 21:00N 49°17' W 000°15'3212.7
2019-Nov-19 18:30N 49°48' W 000°28'6516.4
2019-Nov-19 14:30N 50°49' W 001°06'0 0.0
2019-Nov-19 13:30N 50°49' W 001°06'7316.2
2019-Nov-19 09:01N 49°41' W 000°24'2412.1
2019-Nov-19 07:00N 49°17' W 000°15'15 5.9
2019-Nov-19 04:30N 49°32' W 000°21'7514.7
2019-Nov-18 23:22N 50°42' W 001°01'7 8.0
2019-Nov-18 22:31N 50°49' W 001°06'0 0.0
2019-Nov-18 22:01N 50°49' W 001°06'0 0.0
2019-Nov-18 21:31N 50°49' W 001°06'6 6.1
2019-Nov-18 20:30N 50°43' W 001°01'917.4
2019-Nov-18 20:00N 50°35' W 000°56'7819.4
2019-Nov-18 16:00N 49°22' W 000°15'5 9.5
2019-Nov-18 15:30N 49°17' W 000°15'13 5.0
2019-Nov-18 13:01N 49°29' W 000°20'918.4
2019-Nov-18 12:31N 49°38' W 000°24'6018.4
2019-Nov-18 09:13N 50°34' W 000°59'4 1.0
2019-Nov-18 05:30N 50°38' W 000°58'5512.1
2019-Nov-18 01:01N 49°47' W 000°27'1711.0
2019-Nov-17 23:31N 49°32' W 000°18'510.8
2019-Nov-17 23:01N 49°26' W 000°17'9 8.9
2019-Nov-17 22:00N 49°17' W 000°15'3 1.4
2019-Nov-17 20:01N 49°20' W 000°14'1 0.1
2019-Nov-17 07:30N 49°19' W 000°15'12 3.9
2019-Nov-17 04:30N 49°30' W 000°20'714.5
2019-Nov-17 04:00N 49°37' W 000°24'714.2
2019-Nov-17 03:30N 49°44' W 000°28'6911.5
2019-Nov-16 21:30N 50°49' W 001°06'7 6.8
2019-Nov-16 20:30N 50°43' W 000°60'5719.0
2019-Nov-16 17:30N 49°49' W 000°32'1019.9
2019-Nov-16 17:00N 49°39' W 000°27'1919.4
2019-Nov-16 16:00N 49°22' W 000°15'4 8.0
2019-Nov-16 15:29N 49°17' W 000°15'9712.2
2019-Nov-16 07:30N 50°49' W 001°06'0 0.4
2019-Nov-16 06:30N 50°49' W 001°06'5712.7
2019-Nov-16 02:03N 49°56' W 000°34'3710.6
2019-Nov-15 22:30N 49°21' W 000°15'3 1.3
2019-Nov-15 19:58N 49°17' W 000°15'0 0.0
2019-Nov-15 18:58N 49°17' W 000°15'0 0.0
2019-Nov-15 17:58N 49°17' W 000°15'0 0.0
2019-Nov-15 15:30N 49°17' W 000°15'4 1.9
2019-Nov-15 13:30N 49°21' W 000°15'2818.4
2019-Nov-15 12:01N 49°46' W 000°31'6117.5
2019-Nov-15 08:30N 50°44' W 001°04'5 3.2
2019-Nov-15 07:00N 50°49' W 001°06'7410.6
2019-Nov-15 00:01N 49°40' W 000°24'1711.5
2019-Nov-14 22:31N 49°23' W 000°16'6 1.9
2019-Nov-14 19:31N 49°28' W 000°20'918.0
2019-Nov-14 19:00N 49°37' W 000°24'917.8
2019-Nov-14 18:30N 49°45' W 000°29'29 2.4
2019-Nov-14 06:30N 49°17' W 000°15'24 9.5
2019-Nov-14 04:00N 49°40' W 000°25'6915.4
2019-Nov-13 23:30N 50°44' W 001°04'4 2.0
2019-Nov-13 21:30N 50°48' W 001°07'5518.1
2019-Nov-13 18:27N 49°56' W 000°37'819.0
2019-Nov-13 18:00N 49°48' W 000°33'3316.2
2019-Nov-13 15:58N 49°17' W 000°15'0 0.0
2019-Nov-13 14:30N 49°17' W 000°15'0 0.0
2019-Nov-13 14:00N 49°17' W 000°15'2013.4
2019-Nov-13 12:31N 49°37' W 000°23'1817.9
2019-Nov-13 11:30N 49°54' W 000°33'5418.1
2019-Nov-13 08:30N 50°44' W 001°04'2 0.6
2019-Nov-13 06:00N 50°43' W 001°02'5012.9
2019-Nov-13 02:08N 49°56' W 000°36'211.2
2019-Nov-13 01:59N 49°55' W 000°35'2210.9
2019-Nov-13 00:00N 49°35' W 000°22'510.5
2019-Nov-12 23:30N 49°30' W 000°20'13 8.4
2019-Nov-12 22:00N 49°17' W 000°15'8513.1
2019-Nov-12 15:30N 50°38' W 000°57'917.3
2019-Nov-12 15:00N 50°45' W 001°05'4 3.5
2019-Nov-12 14:00N 50°49' W 001°06'0 0.0
2019-Nov-12 13:30N 50°49' W 001°06'1 1.1
2019-Nov-12 13:00N 50°49' W 001°07'1616.1
2019-Nov-12 12:00N 50°34' W 000°57'4118.8
2019-Nov-12 09:51N 49°57' W 000°31'1518.2
2019-Nov-12 09:01N 49°43' W 000°22'2617.1
2019-Nov-12 07:31N 49°17' W 000°15'0 0.0
2019-Nov-12 06:01N 49°17' W 000°15'3212.6
2019-Nov-12 03:30N 49°47' W 000°31'5415.1
2019-Nov-11 23:57N 50°35' W 001°07'13 5.4
2019-Nov-11 21:30N 50°49' W 001°06'1 2.7
2019-Nov-11 21:00N 50°47' W 001°07'6217.4
2019-Nov-11 17:26N 49°49' W 000°32'817.5
2019-Nov-11 17:00N 49°42' W 000°29'917.9
2019-Nov-11 16:30N 49°34' W 000°24'1711.6
2019-Nov-11 15:00N 49°17' W 000°15'11 5.7
2019-Nov-11 13:00N 49°29' W 000°18'1817.7
2019-Nov-11 12:00N 49°46' W 000°25'5819.2
2019-Nov-11 09:00N 50°38' W 001°03'6 1.9
2019-Nov-11 06:01N 50°44' W 001°03'815.8
2019-Nov-11 05:30N 50°36' W 000°57'4511.4
2019-Nov-11 01:35N 49°54' W 000°35'711.9
2019-Nov-11 01:00N 49°48' W 000°32'612.0
2019-Nov-11 00:31N 49°42' W 000°29'1211.8
2019-Nov-10 23:30N 49°31' W 000°23'1211.5
2019-Nov-10 22:31N 49°21' W 000°14'3 2.2
2019-Nov-10 21:01N 49°17' W 000°15'3212.6
2019-Nov-10 18:30N 49°47' W 000°29'5519.3
2019-Nov-10 15:38N 50°40' W 000°58'58 8.8
2019-Nov-10 09:00N 49°45' W 000°27'  
Track history (hours):
 
Tides and Currents Weather Stations Pressure Air Temp Water Temp Dewpoint Dewpoint Depression Visibility Wind Speed Wind Dir Waves Ship Positions

Normandie

Operator: Brittany Ferries

Last reported at 2019-Nov-20 08:30 UTC. Time now 2019-Nov-20 09:43 UTC.
Position N 50°47' W 001°06'.

Length 161 m; beam 27 m.

Type: Ship. MMSI: 227273000.

Date/timePositionNaut miles runAvg speedWind from/ knotsBaromVisibWave heightAir tempDewpointWater temp
2019-Nov-20 08:30N 50°47' W 001°06'2 1.6
2019-Nov-20 07:29N 50°49' W 001°06'0 0.1
2019-Nov-20 06:31N 50°49' W 001°06'8111.6
2019-Nov-19 23:30N 49°32' W 000°23'1111.2
2019-Nov-19 22:30N 49°22' W 000°16'5 3.0
2019-Nov-19 21:00N 49°17' W 000°15'3212.7
2019-Nov-19 18:30N 49°48' W 000°28'6516.4
2019-Nov-19 14:30N 50°49' W 001°06'0 0.0
2019-Nov-19 13:30N 50°49' W 001°06'7316.2
2019-Nov-19 09:01N 49°41' W 000°24'2412.1
2019-Nov-19 07:00N 49°17' W 000°15'15 5.9
2019-Nov-19 04:30N 49°32' W 000°21'7514.7
2019-Nov-18 23:22N 50°42' W 001°01'7 8.0
2019-Nov-18 22:31N 50°49' W 001°06'0 0.0
2019-Nov-18 22:01N 50°49' W 001°06'0 0.0
2019-Nov-18 21:31N 50°49' W 001°06'6 6.1
2019-Nov-18 20:30N 50°43' W 001°01'917.4
2019-Nov-18 20:00N 50°35' W 000°56'7819.4
2019-Nov-18 16:00N 49°22' W 000°15'5 9.5
2019-Nov-18 15:30N 49°17' W 000°15'13 5.0
2019-Nov-18 13:01N 49°29' W 000°20'918.4
2019-Nov-18 12:31N 49°38' W 000°24'6018.4
2019-Nov-18 09:13N 50°34' W 000°59'4 1.0
2019-Nov-18 05:30N 50°38' W 000°58'5512.1
2019-Nov-18 01:01N 49°47' W 000°27'1711.0
2019-Nov-17 23:31N 49°32' W 000°18'510.8
2019-Nov-17 23:01N 49°26' W 000°17'9 8.9
2019-Nov-17 22:00N 49°17' W 000°15'3 1.4
2019-Nov-17 20:01N 49°20' W 000°14'1 0.1
2019-Nov-17 07:30N 49°19' W 000°15'12 3.9
2019-Nov-17 04:30N 49°30' W 000°20'714.5
2019-Nov-17 04:00N 49°37' W 000°24'714.2
2019-Nov-17 03:30N 49°44' W 000°28'6911.5
2019-Nov-16 21:30N 50°49' W 001°06'7 6.8
2019-Nov-16 20:30N 50°43' W 000°60'5719.0
2019-Nov-16 17:30N 49°49' W 000°32'1019.9
2019-Nov-16 17:00N 49°39' W 000°27'1919.4
2019-Nov-16 16:00N 49°22' W 000°15'4 8.0
2019-Nov-16 15:29N 49°17' W 000°15'9712.2
2019-Nov-16 07:30N 50°49' W 001°06'0 0.4
2019-Nov-16 06:30N 50°49' W 001°06'5712.7
2019-Nov-16 02:03N 49°56' W 000°34'3710.6
2019-Nov-15 22:30N 49°21' W 000°15'3 1.3
2019-Nov-15 19:58N 49°17' W 000°15'0 0.0
2019-Nov-15 18:58N 49°17' W 000°15'0 0.0
2019-Nov-15 17:58N 49°17' W 000°15'0 0.0
2019-Nov-15 15:30N 49°17' W 000°15'4 1.9
2019-Nov-15 13:30N 49°21' W 000°15'2818.4
2019-Nov-15 12:01N 49°46' W 000°31'6117.5
2019-Nov-15 08:30N 50°44' W 001°04'5 3.2
2019-Nov-15 07:00N 50°49' W 001°06'7410.6
2019-Nov-15 00:01N 49°40' W 000°24'1711.5
2019-Nov-14 22:31N 49°23' W 000°16'6 1.9
2019-Nov-14 19:31N 49°28' W 000°20'918.0
2019-Nov-14 19:00N 49°37' W 000°24'917.8
2019-Nov-14 18:30N 49°45' W 000°29'29 2.4
2019-Nov-14 06:30N 49°17' W 000°15'24 9.5
2019-Nov-14 04:00N 49°40' W 000°25'6915.4
2019-Nov-13 23:30N 50°44' W 001°04'4 2.0
2019-Nov-13 21:30N 50°48' W 001°07'5518.1
2019-Nov-13 18:27N 49°56' W 000°37'819.0
2019-Nov-13 18:00N 49°48' W 000°33'3316.2
2019-Nov-13 15:58N 49°17' W 000°15'0 0.0
2019-Nov-13 14:30N 49°17' W 000°15'0 0.0
2019-Nov-13 14:00N 49°17' W 000°15'2013.4
2019-Nov-13 12:31N 49°37' W 000°23'1817.9
2019-Nov-13 11:30N 49°54' W 000°33'5418.1
2019-Nov-13 08:30N 50°44' W 001°04'2 0.6
2019-Nov-13 06:00N 50°43' W 001°02'5012.9
2019-Nov-13 02:08N 49°56' W 000°36'211.2
2019-Nov-13 01:59N 49°55' W 000°35'2210.9
2019-Nov-13 00:00N 49°35' W 000°22'510.5
2019-Nov-12 23:30N 49°30' W 000°20'13 8.4
2019-Nov-12 22:00N 49°17' W 000°15'8513.1
2019-Nov-12 15:30N 50°38' W 000°57'917.3
2019-Nov-12 15:00N 50°45' W 001°05'4 3.5
2019-Nov-12 14:00N 50°49' W 001°06'0 0.0
2019-Nov-12 13:30N 50°49' W 001°06'1 1.1
2019-Nov-12 13:00N 50°49' W 001°07'1616.1
2019-Nov-12 12:00N 50°34' W 000°57'4118.8
2019-Nov-12 09:51N 49°57' W 000°31'1518.2
2019-Nov-12 09:01N 49°43' W 000°22'2617.1
2019-Nov-12 07:31N 49°17' W 000°15'0 0.0
2019-Nov-12 06:01N 49°17' W 000°15'3212.6
2019-Nov-12 03:30N 49°47' W 000°31'5415.1
2019-Nov-11 23:57N 50°35' W 001°07'13 5.4
2019-Nov-11 21:30N 50°49' W 001°06'1 2.7
2019-Nov-11 21:00N 50°47' W 001°07'6217.4
2019-Nov-11 17:26N 49°49' W 000°32'817.5
2019-Nov-11 17:00N 49°42' W 000°29'917.9
2019-Nov-11 16:30N 49°34' W 000°24'1711.6
2019-Nov-11 15:00N 49°17' W 000°15'11 5.7
2019-Nov-11 13:00N 49°29' W 000°18'1817.7
2019-Nov-11 12:00N 49°46' W 000°25'5819.2
2019-Nov-11 09:00N 50°38' W 001°03'6 1.9
2019-Nov-11 06:01N 50°44' W 001°03'815.8
2019-Nov-11 05:30N 50°36' W 000°57'4511.4
2019-Nov-11 01:35N 49°54' W 000°35'711.9
2019-Nov-11 01:00N 49°48' W 000°32'612.0
2019-Nov-11 00:31N 49°42' W 000°29'1211.8
2019-Nov-10 23:30N 49°31' W 000°23'1211.5
2019-Nov-10 22:31N 49°21' W 000°14'3 2.2
2019-Nov-10 21:01N 49°17' W 000°15'3212.6
2019-Nov-10 18:30N 49°47' W 000°29'5519.3
2019-Nov-10 15:38N 50°40' W 000°58'58 8.8
2019-Nov-10 09:00N 49°45' W 000°27'  

Dump ship's entire track history